sensor_id;sensor_type;location;lat;lon;timestamp;P1;durP1;ratioP1;P2;durP2;ratioP2
3718;SDS011;1875;52.492;6.860;2023-05-27T00:00:44;24.43;;;5.43;;
3718;SDS011;1875;52.492;6.860;2023-05-27T00:03:13;25.37;;;5.77;;
3718;SDS011;1875;52.492;6.860;2023-05-27T00:05:41;31.33;;;6.53;;
3718;SDS011;1875;52.492;6.860;2023-05-27T00:08:09;22.50;;;5.87;;
3718;SDS011;1875;52.492;6.860;2023-05-27T00:10:37;20.53;;;6.73;;
3718;SDS011;1875;52.492;6.860;2023-05-27T00:13:04;23.70;;;6.03;;
3718;SDS011;1875;52.492;6.860;2023-05-27T00:15:32;19.87;;;5.57;;
3718;SDS011;1875;52.492;6.860;2023-05-27T00:18:00;21.47;;;6.00;;
3718;SDS011;1875;52.492;6.860;2023-05-27T00:20:29;21.63;;;6.10;;
3718;SDS011;1875;52.492;6.860;2023-05-27T00:22:58;24.37;;;5.97;;
3718;SDS011;1875;52.492;6.860;2023-05-27T00:25:26;28.93;;;6.10;;
3718;SDS011;1875;52.492;6.860;2023-05-27T00:28:46;23.70;;;6.00;;
3718;SDS011;1875;52.492;6.860;2023-05-27T00:31:14;23.47;;;6.20;;
3718;SDS011;1875;52.492;6.860;2023-05-27T00:33:42;24.10;;;6.20;;
3718;SDS011;1875;52.492;6.860;2023-05-27T00:36:10;19.80;;;5.40;;
3718;SDS011;1875;52.492;6.860;2023-05-27T00:38:38;18.70;;;5.73;;
3718;SDS011;1875;52.492;6.860;2023-05-27T00:41:05;16.60;;;5.17;;
3718;SDS011;1875;52.492;6.860;2023-05-27T00:43:34;21.23;;;6.17;;
3718;SDS011;1875;52.492;6.860;2023-05-27T00:46:03;17.43;;;5.77;;
3718;SDS011;1875;52.492;6.860;2023-05-27T00:48:31;26.93;;;7.90;;
3718;SDS011;1875;52.492;6.860;2023-05-27T00:50:59;25.57;;;6.47;;
3718;SDS011;1875;52.492;6.860;2023-05-27T00:53:27;24.13;;;6.97;;
3718;SDS011;1875;52.492;6.860;2023-05-27T00:55:55;27.40;;;7.37;;
3718;SDS011;1875;52.492;6.860;2023-05-27T00:58:24;16.47;;;5.97;;
3718;SDS011;1875;52.492;6.860;2023-05-27T01:00:53;25.70;;;6.23;;
3718;SDS011;1875;52.492;6.860;2023-05-27T01:03:23;22.10;;;5.60;;
3718;SDS011;1875;52.492;6.860;2023-05-27T01:05:52;22.83;;;6.63;;
3718;SDS011;1875;52.492;6.860;2023-05-27T01:08:24;22.30;;;6.90;;
3718;SDS011;1875;52.492;6.860;2023-05-27T01:10:57;25.23;;;7.00;;
3718;SDS011;1875;52.492;6.860;2023-05-27T01:13:28;26.47;;;6.33;;
3718;SDS011;1875;52.492;6.860;2023-05-27T01:16:00;20.57;;;6.00;;
3718;SDS011;1875;52.492;6.860;2023-05-27T01:18:31;23.83;;;6.17;;
3718;SDS011;1875;52.492;6.860;2023-05-27T01:21:00;24.97;;;5.70;;
3718;SDS011;1875;52.492;6.860;2023-05-27T01:23:43;22.43;;;6.23;;
3718;SDS011;1875;52.492;6.860;2023-05-27T01:26:10;24.30;;;6.33;;
3718;SDS011;1875;52.492;6.860;2023-05-27T01:28:38;18.17;;;5.77;;
3718;SDS011;1875;52.492;6.860;2023-05-27T01:31:09;23.53;;;6.10;;
3718;SDS011;1875;52.492;6.860;2023-05-27T01:33:40;17.43;;;6.27;;
3718;SDS011;1875;52.492;6.860;2023-05-27T01:36:12;21.80;;;6.67;;
3718;SDS011;1875;52.492;6.860;2023-05-27T01:38:43;25.77;;;6.37;;
3718;SDS011;1875;52.492;6.860;2023-05-27T01:41:11;18.20;;;6.53;;
3718;SDS011;1875;52.492;6.860;2023-05-27T01:43:39;20.57;;;6.67;;
3718;SDS011;1875;52.492;6.860;2023-05-27T01:46:07;23.73;;;5.90;;
3718;SDS011;1875;52.492;6.860;2023-05-27T01:48:35;28.87;;;6.80;;
3718;SDS011;1875;52.492;6.860;2023-05-27T01:51:03;24.30;;;7.00;;
3718;SDS011;1875;52.492;6.860;2023-05-27T01:53:31;29.97;;;6.73;;
3718;SDS011;1875;52.492;6.860;2023-05-27T01:56:00;18.93;;;7.73;;
3718;SDS011;1875;52.492;6.860;2023-05-27T01:58:28;27.10;;;7.30;;
3718;SDS011;1875;52.492;6.860;2023-05-27T02:00:56;37.23;;;6.63;;
3718;SDS011;1875;52.492;6.860;2023-05-27T02:03:24;35.87;;;7.37;;
3718;SDS011;1875;52.492;6.860;2023-05-27T02:05:53;26.73;;;7.10;;
3718;SDS011;1875;52.492;6.860;2023-05-27T02:08:21;32.70;;;7.33;;
3718;SDS011;1875;52.492;6.860;2023-05-27T02:10:49;24.93;;;7.77;;
3718;SDS011;1875;52.492;6.860;2023-05-27T02:13:18;34.30;;;8.57;;
3718;SDS011;1875;52.492;6.860;2023-05-27T02:15:46;29.50;;;7.03;;
3718;SDS011;1875;52.492;6.860;2023-05-27T02:18:14;27.00;;;7.27;;
3718;SDS011;1875;52.492;6.860;2023-05-27T02:20:42;22.73;;;6.47;;
3718;SDS011;1875;52.492;6.860;2023-05-27T02:23:10;27.27;;;7.57;;
3718;SDS011;1875;52.492;6.860;2023-05-27T02:25:37;25.57;;;7.23;;
3718;SDS011;1875;52.492;6.860;2023-05-27T02:28:05;24.03;;;7.03;;
3718;SDS011;1875;52.492;6.860;2023-05-27T02:30:34;31.27;;;7.27;;
3718;SDS011;1875;52.492;6.860;2023-05-27T02:33:02;25.47;;;7.87;;
3718;SDS011;1875;52.492;6.860;2023-05-27T02:35:30;23.43;;;6.43;;
3718;SDS011;1875;52.492;6.860;2023-05-27T02:37:58;21.40;;;7.63;;
3718;SDS011;1875;52.492;6.860;2023-05-27T02:40:26;20.20;;;6.50;;
3718;SDS011;1875;52.492;6.860;2023-05-27T02:42:54;19.00;;;6.80;;
3718;SDS011;1875;52.492;6.860;2023-05-27T02:45:22;20.77;;;5.93;;
3718;SDS011;1875;52.492;6.860;2023-05-27T02:47:52;27.33;;;7.30;;
3718;SDS011;1875;52.492;6.860;2023-05-27T02:50:21;29.27;;;7.53;;
3718;SDS011;1875;52.492;6.860;2023-05-27T02:52:49;23.27;;;7.57;;
3718;SDS011;1875;52.492;6.860;2023-05-27T02:55:17;33.97;;;7.90;;
3718;SDS011;1875;52.492;6.860;2023-05-27T02:57:44;29.47;;;7.27;;
3718;SDS011;1875;52.492;6.860;2023-05-27T03:00:13;24.93;;;8.13;;
3718;SDS011;1875;52.492;6.860;2023-05-27T03:02:41;20.63;;;6.67;;
3718;SDS011;1875;52.492;6.860;2023-05-27T03:05:10;25.00;;;7.83;;
3718;SDS011;1875;52.492;6.860;2023-05-27T03:07:38;27.87;;;7.23;;
3718;SDS011;1875;52.492;6.860;2023-05-27T03:10:07;21.73;;;7.80;;
3718;SDS011;1875;52.492;6.860;2023-05-27T03:12:35;26.37;;;7.97;;
3718;SDS011;1875;52.492;6.860;2023-05-27T03:15:03;25.70;;;7.77;;
3718;SDS011;1875;52.492;6.860;2023-05-27T03:17:35;22.27;;;6.90;;
3718;SDS011;1875;52.492;6.860;2023-05-27T03:20:03;31.00;;;7.70;;
3718;SDS011;1875;52.492;6.860;2023-05-27T03:22:36;29.60;;;7.70;;
3718;SDS011;1875;52.492;6.860;2023-05-27T03:25:04;25.93;;;7.90;;
3718;SDS011;1875;52.492;6.860;2023-05-27T03:27:32;38.00;;;8.03;;
3718;SDS011;1875;52.492;6.860;2023-05-27T03:30:00;27.03;;;7.00;;
3718;SDS011;1875;52.492;6.860;2023-05-27T03:32:29;33.93;;;8.17;;
3718;SDS011;1875;52.492;6.860;2023-05-27T03:34:57;25.43;;;7.07;;
3718;SDS011;1875;52.492;6.860;2023-05-27T03:37:24;29.13;;;9.13;;
3718;SDS011;1875;52.492;6.860;2023-05-27T03:39:53;24.87;;;7.53;;
3718;SDS011;1875;52.492;6.860;2023-05-27T03:42:21;26.67;;;7.90;;
3718;SDS011;1875;52.492;6.860;2023-05-27T03:44:49;26.00;;;7.87;;
3718;SDS011;1875;52.492;6.860;2023-05-27T03:47:17;38.00;;;7.73;;
3718;SDS011;1875;52.492;6.860;2023-05-27T03:49:47;23.67;;;6.40;;
3718;SDS011;1875;52.492;6.860;2023-05-27T03:52:14;21.93;;;6.83;;
3718;SDS011;1875;52.492;6.860;2023-05-27T03:54:42;27.07;;;6.83;;
3718;SDS011;1875;52.492;6.860;2023-05-27T03:57:11;24.23;;;7.30;;
3718;SDS011;1875;52.492;6.860;2023-05-27T03:59:39;24.50;;;6.20;;
3718;SDS011;1875;52.492;6.860;2023-05-27T04:02:07;21.57;;;6.80;;
3718;SDS011;1875;52.492;6.860;2023-05-27T04:04:35;18.37;;;5.90;;
3718;SDS011;1875;52.492;6.860;2023-05-27T04:07:03;24.93;;;6.80;;
3718;SDS011;1875;52.492;6.860;2023-05-27T04:09:31;27.27;;;7.00;;
3718;SDS011;1875;52.492;6.860;2023-05-27T04:11:59;30.00;;;6.70;;
3718;SDS011;1875;52.492;6.860;2023-05-27T04:14:28;26.77;;;6.23;;
3718;SDS011;1875;52.492;6.860;2023-05-27T04:16:56;16.57;;;6.37;;
3718;SDS011;1875;52.492;6.860;2023-05-27T04:19:24;20.80;;;5.77;;
3718;SDS011;1875;52.492;6.860;2023-05-27T04:21:52;33.20;;;6.50;;
3718;SDS011;1875;52.492;6.860;2023-05-27T04:24:20;17.43;;;4.60;;
3718;SDS011;1875;52.492;6.860;2023-05-27T04:26:47;17.60;;;5.70;;
3718;SDS011;1875;52.492;6.860;2023-05-27T04:29:15;22.97;;;5.27;;
3718;SDS011;1875;52.492;6.860;2023-05-27T04:31:44;19.97;;;6.33;;
3718;SDS011;1875;52.492;6.860;2023-05-27T04:34:12;30.47;;;6.33;;
3718;SDS011;1875;52.492;6.860;2023-05-27T04:36:40;25.40;;;5.60;;
3718;SDS011;1875;52.492;6.860;2023-05-27T04:39:08;26.27;;;6.17;;
3718;SDS011;1875;52.492;6.860;2023-05-27T04:41:37;26.83;;;5.97;;
3718;SDS011;1875;52.492;6.860;2023-05-27T04:44:06;29.03;;;6.43;;
3718;SDS011;1875;52.492;6.860;2023-05-27T04:46:34;33.10;;;6.60;;
3718;SDS011;1875;52.492;6.860;2023-05-27T04:49:03;24.53;;;6.20;;
3718;SDS011;1875;52.492;6.860;2023-05-27T04:51:31;29.20;;;6.23;;
3718;SDS011;1875;52.492;6.860;2023-05-27T04:53:58;21.20;;;6.03;;
3718;SDS011;1875;52.492;6.860;2023-05-27T04:56:26;22.27;;;6.53;;
3718;SDS011;1875;52.492;6.860;2023-05-27T04:58:55;20.60;;;5.90;;
3718;SDS011;1875;52.492;6.860;2023-05-27T05:01:23;22.40;;;5.83;;
3718;SDS011;1875;52.492;6.860;2023-05-27T05:03:51;23.33;;;6.43;;
3718;SDS011;1875;52.492;6.860;2023-05-27T05:06:30;21.47;;;5.93;;
3718;SDS011;1875;52.492;6.860;2023-05-27T05:08:58;23.13;;;5.70;;
3718;SDS011;1875;52.492;6.860;2023-05-27T05:11:27;25.47;;;5.83;;
3718;SDS011;1875;52.492;6.860;2023-05-27T05:13:56;19.20;;;5.57;;
3718;SDS011;1875;52.492;6.860;2023-05-27T05:16:23;22.80;;;5.80;;
3718;SDS011;1875;52.492;6.860;2023-05-27T05:18:51;25.37;;;5.67;;
3718;SDS011;1875;52.492;6.860;2023-05-27T05:21:19;21.93;;;5.40;;
3718;SDS011;1875;52.492;6.860;2023-05-27T05:23:48;22.03;;;4.73;;
3718;SDS011;1875;52.492;6.860;2023-05-27T05:26:16;20.70;;;5.10;;
3718;SDS011;1875;52.492;6.860;2023-05-27T05:28:44;15.00;;;5.17;;
3718;SDS011;1875;52.492;6.860;2023-05-27T05:31:11;21.27;;;6.17;;
3718;SDS011;1875;52.492;6.860;2023-05-27T05:33:40;20.40;;;5.13;;
3718;SDS011;1875;52.492;6.860;2023-05-27T05:36:08;21.33;;;5.33;;
3718;SDS011;1875;52.492;6.860;2023-05-27T05:38:36;21.90;;;5.67;;
3718;SDS011;1875;52.492;6.860;2023-05-27T05:41:05;24.17;;;6.20;;
3718;SDS011;1875;52.492;6.860;2023-05-27T05:43:33;17.50;;;5.00;;
3718;SDS011;1875;52.492;6.860;2023-05-27T05:46:00;22.10;;;5.23;;
3718;SDS011;1875;52.492;6.860;2023-05-27T05:48:28;23.37;;;5.93;;
3718;SDS011;1875;52.492;6.860;2023-05-27T05:50:56;18.27;;;5.03;;
3718;SDS011;1875;52.492;6.860;2023-05-27T05:53:24;23.73;;;4.97;;
3718;SDS011;1875;52.492;6.860;2023-05-27T05:55:52;21.93;;;4.87;;
3718;SDS011;1875;52.492;6.860;2023-05-27T05:58:21;18.10;;;5.40;;
3718;SDS011;1875;52.492;6.860;2023-05-27T06:00:49;21.87;;;5.17;;
3718;SDS011;1875;52.492;6.860;2023-05-27T06:03:17;25.33;;;5.40;;
3718;SDS011;1875;52.492;6.860;2023-05-27T06:05:45;21.33;;;5.07;;
3718;SDS011;1875;52.492;6.860;2023-05-27T06:08:13;22.60;;;6.23;;
3718;SDS011;1875;52.492;6.860;2023-05-27T06:10:41;20.17;;;4.67;;
3718;SDS011;1875;52.492;6.860;2023-05-27T06:13:09;23.97;;;6.53;;
3718;SDS011;1875;52.492;6.860;2023-05-27T06:15:38;16.03;;;4.87;;
3718;SDS011;1875;52.492;6.860;2023-05-27T06:18:06;30.00;;;5.47;;
3718;SDS011;1875;52.492;6.860;2023-05-27T06:20:34;19.43;;;5.40;;
3718;SDS011;1875;52.492;6.860;2023-05-27T06:23:02;16.60;;;5.27;;
3718;SDS011;1875;52.492;6.860;2023-05-27T06:25:30;25.97;;;5.07;;
3718;SDS011;1875;52.492;6.860;2023-05-27T06:27:57;22.43;;;5.37;;
3718;SDS011;1875;52.492;6.860;2023-05-27T06:30:26;22.97;;;5.23;;
3718;SDS011;1875;52.492;6.860;2023-05-27T06:32:56;14.40;;;4.30;;
3718;SDS011;1875;52.492;6.860;2023-05-27T06:35:23;15.67;;;5.13;;
3718;SDS011;1875;52.492;6.860;2023-05-27T06:37:51;20.47;;;5.20;;
3718;SDS011;1875;52.492;6.860;2023-05-27T06:40:19;23.03;;;5.10;;
3718;SDS011;1875;52.492;6.860;2023-05-27T06:42:47;19.67;;;5.53;;
3718;SDS011;1875;52.492;6.860;2023-05-27T06:45:15;27.00;;;6.17;;
3718;SDS011;1875;52.492;6.860;2023-05-27T06:47:42;17.13;;;5.33;;
3718;SDS011;1875;52.492;6.860;2023-05-27T06:50:12;21.33;;;5.87;;
3718;SDS011;1875;52.492;6.860;2023-05-27T06:52:39;17.10;;;4.60;;
3718;SDS011;1875;52.492;6.860;2023-05-27T06:55:08;21.33;;;5.43;;
3718;SDS011;1875;52.492;6.860;2023-05-27T06:57:36;25.77;;;6.67;;
3718;SDS011;1875;52.492;6.860;2023-05-27T07:00:04;23.60;;;4.93;;
3718;SDS011;1875;52.492;6.860;2023-05-27T07:02:34;20.20;;;5.17;;
3718;SDS011;1875;52.492;6.860;2023-05-27T07:05:02;21.57;;;5.17;;
3718;SDS011;1875;52.492;6.860;2023-05-27T07:07:31;19.10;;;4.87;;
3718;SDS011;1875;52.492;6.860;2023-05-27T07:09:59;17.40;;;5.40;;
3718;SDS011;1875;52.492;6.860;2023-05-27T07:12:27;19.03;;;6.23;;
3718;SDS011;1875;52.492;6.860;2023-05-27T07:14:55;18.97;;;5.10;;
3718;SDS011;1875;52.492;6.860;2023-05-27T07:17:22;16.67;;;5.37;;
3718;SDS011;1875;52.492;6.860;2023-05-27T07:19:50;20.27;;;6.57;;
3718;SDS011;1875;52.492;6.860;2023-05-27T07:22:18;23.47;;;5.67;;
3718;SDS011;1875;52.492;6.860;2023-05-27T07:24:47;20.70;;;6.07;;
3718;SDS011;1875;52.492;6.860;2023-05-27T07:27:15;17.30;;;5.80;;
3718;SDS011;1875;52.492;6.860;2023-05-27T07:29:43;21.40;;;5.63;;
3718;SDS011;1875;52.492;6.860;2023-05-27T07:32:10;24.97;;;6.83;;
3718;SDS011;1875;52.492;6.860;2023-05-27T07:34:38;25.40;;;6.70;;
3718;SDS011;1875;52.492;6.860;2023-05-27T07:37:06;22.37;;;6.17;;
3718;SDS011;1875;52.492;6.860;2023-05-27T07:39:35;25.20;;;6.00;;
3718;SDS011;1875;52.492;6.860;2023-05-27T07:42:04;20.43;;;6.00;;
3718;SDS011;1875;52.492;6.860;2023-05-27T07:44:32;23.60;;;6.17;;
3718;SDS011;1875;52.492;6.860;2023-05-27T07:47:00;22.00;;;5.97;;
3718;SDS011;1875;52.492;6.860;2023-05-27T07:49:28;24.07;;;6.27;;
3718;SDS011;1875;52.492;6.860;2023-05-27T07:51:56;20.23;;;5.67;;
3718;SDS011;1875;52.492;6.860;2023-05-27T07:54:23;18.43;;;5.53;;
3718;SDS011;1875;52.492;6.860;2023-05-27T07:56:53;22.67;;;6.37;;
3718;SDS011;1875;52.492;6.860;2023-05-27T07:59:22;24.50;;;7.07;;
3718;SDS011;1875;52.492;6.860;2023-05-27T08:01:49;23.47;;;5.93;;
3718;SDS011;1875;52.492;6.860;2023-05-27T08:04:17;32.40;;;5.97;;
3718;SDS011;1875;52.492;6.860;2023-05-27T08:06:51;22.20;;;6.30;;
3718;SDS011;1875;52.492;6.860;2023-05-27T08:09:19;22.77;;;6.27;;
3718;SDS011;1875;52.492;6.860;2023-05-27T08:11:46;22.17;;;5.73;;
3718;SDS011;1875;52.492;6.860;2023-05-27T08:14:14;18.77;;;5.20;;
3718;SDS011;1875;52.492;6.860;2023-05-27T08:16:43;20.30;;;5.40;;
3718;SDS011;1875;52.492;6.860;2023-05-27T08:19:11;18.40;;;5.60;;
3718;SDS011;1875;52.492;6.860;2023-05-27T08:21:39;23.93;;;5.80;;
3718;SDS011;1875;52.492;6.860;2023-05-27T08:24:07;22.97;;;6.20;;
3718;SDS011;1875;52.492;6.860;2023-05-27T08:26:35;24.27;;;6.60;;
3718;SDS011;1875;52.492;6.860;2023-05-27T08:29:03;21.27;;;6.73;;
3718;SDS011;1875;52.492;6.860;2023-05-27T08:31:31;14.23;;;5.23;;
3718;SDS011;1875;52.492;6.860;2023-05-27T08:34:00;23.33;;;7.03;;
3718;SDS011;1875;52.492;6.860;2023-05-27T08:36:28;19.70;;;6.03;;
3718;SDS011;1875;52.492;6.860;2023-05-27T08:38:57;18.77;;;5.50;;
3718;SDS011;1875;52.492;6.860;2023-05-27T08:41:26;20.30;;;6.57;;
3718;SDS011;1875;52.492;6.860;2023-05-27T08:43:54;23.73;;;5.73;;
3718;SDS011;1875;52.492;6.860;2023-05-27T08:46:42;17.27;;;5.23;;
3718;SDS011;1875;52.492;6.860;2023-05-27T08:49:11;18.23;;;4.50;;
3718;SDS011;1875;52.492;6.860;2023-05-27T08:51:39;16.47;;;6.03;;
3718;SDS011;1875;52.492;6.860;2023-05-27T08:54:08;17.77;;;5.50;;
3718;SDS011;1875;52.492;6.860;2023-05-27T08:56:36;23.97;;;6.30;;
3718;SDS011;1875;52.492;6.860;2023-05-27T08:59:04;18.33;;;5.50;;
3718;SDS011;1875;52.492;6.860;2023-05-27T09:01:32;18.47;;;4.93;;
3718;SDS011;1875;52.492;6.860;2023-05-27T09:04:00;21.63;;;5.93;;
3718;SDS011;1875;52.492;6.860;2023-05-27T09:06:29;26.10;;;5.67;;
3718;SDS011;1875;52.492;6.860;2023-05-27T09:08:58;24.80;;;6.43;;
3718;SDS011;1875;52.492;6.860;2023-05-27T09:11:26;21.77;;;6.60;;
3718;SDS011;1875;52.492;6.860;2023-05-27T09:13:57;22.40;;;6.10;;
3718;SDS011;1875;52.492;6.860;2023-05-27T09:16:24;22.47;;;5.60;;
3718;SDS011;1875;52.492;6.860;2023-05-27T09:18:52;22.90;;;6.47;;
3718;SDS011;1875;52.492;6.860;2023-05-27T09:21:20;16.77;;;5.57;;
3718;SDS011;1875;52.492;6.860;2023-05-27T09:23:49;22.30;;;5.57;;
3718;SDS011;1875;52.492;6.860;2023-05-27T09:26:17;15.23;;;5.93;;
3718;SDS011;1875;52.492;6.860;2023-05-27T09:28:45;14.90;;;5.27;;
3718;SDS011;1875;52.492;6.860;2023-05-27T09:31:13;19.97;;;4.97;;
3718;SDS011;1875;52.492;6.860;2023-05-27T09:33:40;23.63;;;5.80;;
3718;SDS011;1875;52.492;6.860;2023-05-27T09:36:08;20.60;;;5.47;;
3718;SDS011;1875;52.492;6.860;2023-05-27T09:38:37;17.03;;;5.10;;
3718;SDS011;1875;52.492;6.860;2023-05-27T09:41:06;17.90;;;5.37;;
3718;SDS011;1875;52.492;6.860;2023-05-27T09:43:34;18.93;;;5.57;;
3718;SDS011;1875;52.492;6.860;2023-05-27T09:46:11;23.30;;;6.33;;
3718;SDS011;1875;52.492;6.860;2023-05-27T09:48:39;17.50;;;5.00;;
3718;SDS011;1875;52.492;6.860;2023-05-27T09:51:07;28.07;;;5.63;;
3718;SDS011;1875;52.492;6.860;2023-05-27T09:53:35;17.63;;;5.17;;
3718;SDS011;1875;52.492;6.860;2023-05-27T09:56:04;18.37;;;5.00;;
3718;SDS011;1875;52.492;6.860;2023-05-27T09:58:34;19.70;;;5.37;;
3718;SDS011;1875;52.492;6.860;2023-05-27T10:01:02;16.10;;;5.50;;
3718;SDS011;1875;52.492;6.860;2023-05-27T10:03:31;16.90;;;4.80;;
3718;SDS011;1875;52.492;6.860;2023-05-27T10:06:00;17.77;;;5.07;;
3718;SDS011;1875;52.492;6.860;2023-05-27T10:08:29;16.30;;;5.53;;
3718;SDS011;1875;52.492;6.860;2023-05-27T10:10:56;26.33;;;6.03;;
3718;SDS011;1875;52.492;6.860;2023-05-27T10:13:26;20.47;;;5.53;;
3718;SDS011;1875;52.492;6.860;2023-05-27T10:15:54;21.83;;;5.23;;
3718;SDS011;1875;52.492;6.860;2023-05-27T10:18:23;18.23;;;5.70;;
3718;SDS011;1875;52.492;6.860;2023-05-27T10:20:51;15.23;;;5.30;;
3718;SDS011;1875;52.492;6.860;2023-05-27T10:23:23;19.93;;;5.60;;
3718;SDS011;1875;52.492;6.860;2023-05-27T10:25:53;19.43;;;5.50;;
3718;SDS011;1875;52.492;6.860;2023-05-27T10:28:23;22.80;;;5.53;;
3718;SDS011;1875;52.492;6.860;2023-05-27T10:30:53;16.40;;;5.33;;
3718;SDS011;1875;52.492;6.860;2023-05-27T10:33:31;17.87;;;5.33;;
3718;SDS011;1875;52.492;6.860;2023-05-27T10:36:08;17.40;;;5.40;;
3718;SDS011;1875;52.492;6.860;2023-05-27T10:38:37;22.93;;;6.30;;
3718;SDS011;1875;52.492;6.860;2023-05-27T10:41:07;19.63;;;6.40;;
3718;SDS011;1875;52.492;6.860;2023-05-27T10:43:36;18.53;;;5.67;;
3718;SDS011;1875;52.492;6.860;2023-05-27T10:46:04;16.53;;;5.13;;
3718;SDS011;1875;52.492;6.860;2023-05-27T10:48:35;19.37;;;5.60;;
3718;SDS011;1875;52.492;6.860;2023-05-27T10:51:06;16.47;;;5.67;;
3718;SDS011;1875;52.492;6.860;2023-05-27T10:53:34;17.63;;;5.57;;
3718;SDS011;1875;52.492;6.860;2023-05-27T10:56:03;18.23;;;5.83;;
3718;SDS011;1875;52.492;6.860;2023-05-27T10:58:33;21.33;;;6.10;;
3718;SDS011;1875;52.492;6.860;2023-05-27T11:01:06;19.90;;;6.20;;
3718;SDS011;1875;52.492;6.860;2023-05-27T11:03:40;16.20;;;5.37;;
3718;SDS011;1875;52.492;6.860;2023-05-27T11:06:09;18.93;;;6.00;;
3718;SDS011;1875;52.492;6.860;2023-05-27T11:08:38;16.97;;;5.70;;
3718;SDS011;1875;52.492;6.860;2023-05-27T11:11:06;15.40;;;4.80;;
3718;SDS011;1875;52.492;6.860;2023-05-27T11:13:35;16.70;;;5.10;;
3718;SDS011;1875;52.492;6.860;2023-05-27T11:16:06;18.53;;;5.20;;
3718;SDS011;1875;52.492;6.860;2023-05-27T11:18:37;23.17;;;5.80;;
3718;SDS011;1875;52.492;6.860;2023-05-27T11:21:06;19.70;;;5.17;;
3718;SDS011;1875;52.492;6.860;2023-05-27T11:23:38;13.67;;;5.23;;
3718;SDS011;1875;52.492;6.860;2023-05-27T11:26:16;23.53;;;6.20;;
3718;SDS011;1875;52.492;6.860;2023-05-27T11:28:48;18.03;;;6.10;;
3718;SDS011;1875;52.492;6.860;2023-05-27T11:31:17;28.60;;;6.83;;
3718;SDS011;1875;52.492;6.860;2023-05-27T11:33:48;15.80;;;4.80;;
3718;SDS011;1875;52.492;6.860;2023-05-27T11:36:17;20.37;;;5.10;;
3718;SDS011;1875;52.492;6.860;2023-05-27T11:38:49;17.63;;;5.73;;
3718;SDS011;1875;52.492;6.860;2023-05-27T11:41:18;20.10;;;5.87;;
3718;SDS011;1875;52.492;6.860;2023-05-27T11:43:46;19.80;;;5.53;;
3718;SDS011;1875;52.492;6.860;2023-05-27T11:46:15;19.83;;;6.50;;
3718;SDS011;1875;52.492;6.860;2023-05-27T11:48:44;15.03;;;5.57;;
3718;SDS011;1875;52.492;6.860;2023-05-27T11:51:12;17.70;;;5.23;;
3718;SDS011;1875;52.492;6.860;2023-05-27T11:53:43;15.37;;;5.23;;
3718;SDS011;1875;52.492;6.860;2023-05-27T11:56:12;16.53;;;5.70;;
3718;SDS011;1875;52.492;6.860;2023-05-27T11:58:40;21.13;;;6.20;;
3718;SDS011;1875;52.492;6.860;2023-05-27T12:01:07;20.87;;;5.53;;
3718;SDS011;1875;52.492;6.860;2023-05-27T12:03:35;18.43;;;6.20;;
3718;SDS011;1875;52.492;6.860;2023-05-27T12:06:04;18.47;;;5.93;;
3718;SDS011;1875;52.492;6.860;2023-05-27T12:08:32;16.60;;;4.93;;
3718;SDS011;1875;52.492;6.860;2023-05-27T12:11:00;17.30;;;5.10;;
3718;SDS011;1875;52.492;6.860;2023-05-27T12:13:28;20.23;;;5.30;;
3718;SDS011;1875;52.492;6.860;2023-05-27T12:15:57;17.67;;;5.60;;
3718;SDS011;1875;52.492;6.860;2023-05-27T12:18:26;13.90;;;4.33;;
3718;SDS011;1875;52.492;6.860;2023-05-27T12:20:53;20.93;;;5.47;;
3718;SDS011;1875;52.492;6.860;2023-05-27T12:23:22;16.47;;;5.13;;
3718;SDS011;1875;52.492;6.860;2023-05-27T12:25:51;15.17;;;5.37;;
3718;SDS011;1875;52.492;6.860;2023-05-27T12:28:19;15.20;;;5.13;;
3718;SDS011;1875;52.492;6.860;2023-05-27T12:30:47;18.30;;;5.33;;
3718;SDS011;1875;52.492;6.860;2023-05-27T12:33:15;17.77;;;5.67;;
3718;SDS011;1875;52.492;6.860;2023-05-27T12:35:43;16.17;;;5.37;;
3718;SDS011;1875;52.492;6.860;2023-05-27T12:38:10;21.20;;;5.70;;
3718;SDS011;1875;52.492;6.860;2023-05-27T12:40:40;17.70;;;4.70;;
3718;SDS011;1875;52.492;6.860;2023-05-27T12:43:07;21.00;;;5.17;;
3718;SDS011;1875;52.492;6.860;2023-05-27T12:45:35;11.13;;;4.70;;
3718;SDS011;1875;52.492;6.860;2023-05-27T12:48:03;15.30;;;5.47;;
3718;SDS011;1875;52.492;6.860;2023-05-27T12:50:31;17.30;;;4.87;;
3718;SDS011;1875;52.492;6.860;2023-05-27T12:53:01;14.20;;;4.53;;
3718;SDS011;1875;52.492;6.860;2023-05-27T12:55:29;13.73;;;4.73;;
3718;SDS011;1875;52.492;6.860;2023-05-27T12:57:58;20.93;;;5.13;;
3718;SDS011;1875;52.492;6.860;2023-05-27T13:00:26;16.20;;;5.10;;
3718;SDS011;1875;52.492;6.860;2023-05-27T13:02:55;16.43;;;5.30;;
3718;SDS011;1875;52.492;6.860;2023-05-27T13:06:26;15.07;;;4.93;;
3718;SDS011;1875;52.492;6.860;2023-05-27T13:08:54;12.30;;;4.27;;
3718;SDS011;1875;52.492;6.860;2023-05-27T13:11:22;12.73;;;4.97;;
3718;SDS011;1875;52.492;6.860;2023-05-27T13:13:50;15.93;;;5.00;;
3718;SDS011;1875;52.492;6.860;2023-05-27T13:16:18;20.97;;;5.83;;
3718;SDS011;1875;52.492;6.860;2023-05-27T13:18:46;15.37;;;4.70;;
3718;SDS011;1875;52.492;6.860;2023-05-27T13:21:14;13.97;;;5.40;;
3718;SDS011;1875;52.492;6.860;2023-05-27T13:23:43;14.30;;;4.77;;
3718;SDS011;1875;52.492;6.860;2023-05-27T13:26:11;23.83;;;5.30;;
3718;SDS011;1875;52.492;6.860;2023-05-27T13:28:38;14.50;;;5.00;;
3718;SDS011;1875;52.492;6.860;2023-05-27T13:31:07;13.30;;;5.10;;
3718;SDS011;1875;52.492;6.860;2023-05-27T13:33:35;15.70;;;4.83;;
3718;SDS011;1875;52.492;6.860;2023-05-27T13:36:03;15.97;;;5.10;;
3718;SDS011;1875;52.492;6.860;2023-05-27T13:38:33;16.50;;;6.00;;
3718;SDS011;1875;52.492;6.860;2023-05-27T13:41:02;12.30;;;4.50;;
3718;SDS011;1875;52.492;6.860;2023-05-27T13:43:30;16.93;;;5.80;;
3718;SDS011;1875;52.492;6.860;2023-05-27T13:45:57;20.40;;;5.43;;
3718;SDS011;1875;52.492;6.860;2023-05-27T13:48:25;13.10;;;5.07;;
3718;SDS011;1875;52.492;6.860;2023-05-27T13:50:53;20.87;;;5.83;;
3718;SDS011;1875;52.492;6.860;2023-05-27T13:53:21;15.83;;;4.77;;
3718;SDS011;1875;52.492;6.860;2023-05-27T13:55:49;17.00;;;4.97;;
3718;SDS011;1875;52.492;6.860;2023-05-27T13:58:18;17.30;;;4.60;;
3718;SDS011;1875;52.492;6.860;2023-05-27T14:00:46;16.43;;;4.30;;
3718;SDS011;1875;52.492;6.860;2023-05-27T14:03:14;14.63;;;5.03;;
3718;SDS011;1875;52.492;6.860;2023-05-27T14:05:42;17.33;;;5.17;;
3718;SDS011;1875;52.492;6.860;2023-05-27T14:08:09;10.40;;;5.17;;
3718;SDS011;1875;52.492;6.860;2023-05-27T14:10:37;13.03;;;5.00;;
3718;SDS011;1875;52.492;6.860;2023-05-27T14:13:05;18.73;;;5.40;;
3718;SDS011;1875;52.492;6.860;2023-05-27T14:15:34;10.53;;;4.53;;
3718;SDS011;1875;52.492;6.860;2023-05-27T14:18:02;14.90;;;5.07;;
3718;SDS011;1875;52.492;6.860;2023-05-27T14:20:31;13.10;;;4.80;;
3718;SDS011;1875;52.492;6.860;2023-05-27T14:23:00;15.60;;;5.10;;
3718;SDS011;1875;52.492;6.860;2023-05-27T14:25:31;16.23;;;4.87;;
3718;SDS011;1875;52.492;6.860;2023-05-27T14:27:59;18.53;;;5.37;;
3718;SDS011;1875;52.492;6.860;2023-05-27T14:30:30;15.80;;;4.80;;
3718;SDS011;1875;52.492;6.860;2023-05-27T14:33:04;11.47;;;4.93;;
3718;SDS011;1875;52.492;6.860;2023-05-27T14:35:33;16.03;;;4.47;;
3718;SDS011;1875;52.492;6.860;2023-05-27T14:38:01;15.10;;;4.97;;
3718;SDS011;1875;52.492;6.860;2023-05-27T14:40:29;20.77;;;5.97;;
3718;SDS011;1875;52.492;6.860;2023-05-27T14:42:57;16.47;;;5.17;;
3718;SDS011;1875;52.492;6.860;2023-05-27T14:45:25;13.70;;;4.23;;
3718;SDS011;1875;52.492;6.860;2023-05-27T14:47:53;12.30;;;4.63;;
3718;SDS011;1875;52.492;6.860;2023-05-27T14:50:23;16.20;;;4.37;;
3718;SDS011;1875;52.492;6.860;2023-05-27T14:52:51;14.90;;;5.57;;
3718;SDS011;1875;52.492;6.860;2023-05-27T14:55:20;13.30;;;5.07;;
3718;SDS011;1875;52.492;6.860;2023-05-27T14:57:49;15.83;;;4.93;;
3718;SDS011;1875;52.492;6.860;2023-05-27T15:00:17;17.03;;;4.50;;
3718;SDS011;1875;52.492;6.860;2023-05-27T15:02:45;12.10;;;4.43;;
3718;SDS011;1875;52.492;6.860;2023-05-27T15:05:13;10.87;;;4.17;;
3718;SDS011;1875;52.492;6.860;2023-05-27T15:07:43;14.90;;;4.73;;
3718;SDS011;1875;52.492;6.860;2023-05-27T15:10:11;12.17;;;3.93;;